Time;durP1;ratioP1;P1;durP2;ratioP2;P2;SDS_P1;SDS_P2;PMS_P1;PMS_P2;Temp;Humidity;BMP_temperature;BMP_pressure;BME280_temperature;BME280_humidity;BME280_pressure;Samples;Min_cycle;Max_cycle;Signal;HPM_P1;HPM_P2
2022/05/16 00:01:43;;;;;;;5.90;3.30;;;23.40;43.80;25.10;100657.00;;;;5038629;28;20191;-52
2022/05/16 00:04:09;;;;;;;4.57;3.40;;;23.40;44.10;25.10;100651.00;;;;5032019;28;20167;-50
2022/05/16 00:06:35;;;;;;;4.53;3.33;;;23.40;44.10;25.10;100642.00;;;;5027117;28;20228;-50
2022/05/16 00:09:01;;;;;;;4.77;3.10;;;23.40;44.10;25.00;100629.00;;;;5025632;28;20572;-51
2022/05/16 00:11:27;;;;;;;4.60;3.30;;;23.30;44.10;25.00;100628.00;;;;5026607;28;20179;-53
2022/05/16 00:13:53;;;;;;;7.50;3.00;;;23.30;44.30;25.00;100621.00;;;;5026741;28;20207;-51
2022/05/16 00:16:18;;;;;;;6.93;3.30;;;23.30;44.40;24.90;100566.00;;;;5026544;28;20178;-49
2022/05/16 00:18:44;;;;;;;8.13;3.50;;;23.20;44.40;24.90;100627.00;;;;5026459;28;20194;-51
2022/05/16 00:21:10;;;;;;;5.57;3.57;;;23.20;44.50;24.90;100627.00;;;;5026445;28;20226;-52
2022/05/16 00:23:36;;;;;;;5.03;3.10;;;23.20;44.60;24.90;100623.00;;;;5027075;28;20848;-52
2022/05/16 00:26:02;;;;;;;6.37;3.50;;;23.20;44.60;24.90;100633.00;;;;5048540;28;20171;-51
2022/05/16 00:28:27;;;;;;;6.27;3.43;;;23.20;44.80;24.90;100628.00;;;;5048891;28;20207;-52
2022/05/16 00:30:53;;;;;;;5.23;3.33;;;23.20;44.80;24.90;100622.00;;;;5033542;28;20178;-52
2022/05/16 00:33:19;;;;;;;4.30;3.33;;;23.20;44.80;24.90;100638.00;;;;5026571;28;20186;-53
2022/05/16 00:35:44;;;;;;;5.83;3.03;;;23.20;44.80;24.90;100635.00;;;;5026904;28;20175;-51
2022/05/16 00:38:10;;;;;;;5.20;3.10;;;23.30;44.80;24.90;100619.00;;;;5026442;28;20218;-50
2022/05/16 00:40:36;;;;;;;4.73;3.20;;;23.30;44.80;24.80;100625.00;;;;5026980;28;20567;-51
2022/05/16 00:43:08;;;;;;;5.37;3.13;;;23.20;44.80;24.80;100618.00;;;;5026920;28;20199;-52
2022/05/16 00:45:33;;;;;;;4.90;3.17;;;23.20;44.80;24.80;100625.00;;;;5026702;28;20152;-50
2022/05/16 00:47:59;;;;;;;5.40;3.40;;;23.30;44.90;24.80;100621.00;;;;5027265;28;20273;-51
2022/05/16 00:50:26;;;;;;;4.83;3.13;;;23.20;45.10;24.80;100604.00;;;;5026923;28;20246;-52
2022/05/16 00:52:51;;;;;;;3.60;3.03;;;23.30;45.10;24.80;100616.00;;;;5045264;28;20170;-51
2022/05/16 00:55:22;;;;;;;4.70;3.40;;;23.20;45.10;24.80;100599.00;;;;5045048;28;20250;-52
2022/05/16 00:57:51;;;;;;;3.77;3.33;;;23.20;45.10;24.80;100613.00;;;;5044613;28;20281;-52
2022/05/16 01:00:24;;;;;;;4.30;3.10;;;23.20;45.30;24.80;100619.00;;;;5048707;28;20180;-51
2022/05/16 01:05:38;;;;;;;5.33;3.10;;;23.20;45.20;24.70;100616.00;;;;5049768;28;20161;-50
2022/05/16 01:08:07;;;;;;;5.83;3.37;;;23.20;45.40;24.70;100603.00;;;;5049704;28;20182;-49
2022/05/16 01:10:32;;;;;;;5.80;3.70;;;23.20;45.30;24.70;100609.00;;;;5032247;28;20173;-51
2022/05/16 01:12:58;;;;;;;4.17;3.10;;;23.10;45.30;24.70;100609.00;;;;5049259;28;20171;-53
2022/05/16 01:15:28;;;;;;;4.87;3.40;;;23.10;45.40;24.70;100604.00;;;;5050229;28;20277;-52
2022/05/16 01:17:54;;;;;;;5.47;3.20;;;23.10;45.50;24.70;100609.00;;;;5050913;28;20217;-52
2022/05/16 01:20:20;;;;;;;4.67;3.20;;;23.20;45.50;24.60;100615.00;;;;5049401;28;20281;-51
2022/05/16 01:22:47;;;;;;;5.30;3.23;;;23.20;45.50;24.60;100606.00;;;;5049149;28;20209;-51
2022/05/16 01:25:27;;;;;;;5.00;3.30;;;23.20;45.40;24.60;100599.00;;;;5048996;28;20169;-51
2022/05/16 01:27:59;;;;;;;5.00;3.33;;;23.20;45.50;24.60;100598.00;;;;5048791;28;20218;-51
2022/05/16 01:30:30;;;;;;;5.47;3.60;;;23.10;45.40;24.60;100590.00;;;;5050081;28;20184;-52
2022/05/16 01:32:56;;;;;;;5.10;3.60;;;23.20;45.50;24.50;100606.00;;;;5049816;28;20178;-50
2022/05/16 01:35:25;;;;;;;5.33;3.47;;;23.10;45.40;24.50;100598.00;;;;5049511;28;20209;-51
2022/05/16 01:40:35;;;;;;;5.80;3.20;;;23.10;45.50;24.50;100598.00;;;;5049518;28;20649;-51
2022/05/16 01:43:01;;;;;;;4.30;3.23;;;23.10;45.60;24.50;100600.00;;;;5049769;28;20190;-51
2022/05/16 01:45:27;;;;;;;5.83;3.50;;;23.10;45.50;24.50;100597.00;;;;5049352;28;20174;-50
2022/05/16 01:47:52;;;;;;;4.30;3.33;;;23.10;45.50;24.50;100604.00;;;;5049314;28;20221;-51
2022/05/16 01:50:18;;;;;;;5.07;3.20;;;23.10;45.60;24.50;100600.00;;;;5060167;28;20158;-51
2022/05/16 01:52:44;;;;;;;4.63;3.13;;;23.10;45.40;24.50;100597.00;;;;5036518;28;20203;-52
2022/05/16 01:55:11;;;;;;;3.80;2.83;;;23.20;45.50;24.50;100589.00;;;;5033941;28;20175;-51
2022/05/16 01:57:38;;;;;;;5.47;3.30;;;23.10;45.40;24.50;100588.00;;;;5028606;28;20647;-51
2022/05/16 02:00:05;;;;;;;4.23;3.20;;;23.10;45.40;24.50;100527.00;;;;5029315;28;20206;-50
2022/05/16 02:02:31;;;;;;;5.17;3.30;;;23.20;45.50;24.50;100590.00;;;;5029194;28;20798;-51
2022/05/16 02:04:57;;;;;;;4.10;3.30;;;23.20;45.60;24.50;100586.00;;;;5029398;28;20171;-50
2022/05/16 02:07:22;;;;;;;5.77;3.40;;;23.10;46.00;24.50;100578.00;;;;5028743;28;20167;-51
2022/05/16 02:09:48;;;;;;;4.30;3.33;;;23.20;45.50;24.50;100569.00;;;;5028334;28;20191;-51
2022/05/16 02:12:14;;;;;;;5.33;3.57;;;23.20;45.60;24.50;100579.00;;;;5028920;28;20182;-51
2022/05/16 02:14:40;;;;;;;3.73;3.10;;;23.20;45.50;24.40;100580.00;;;;5028815;28;20175;-51
2022/05/16 02:17:05;;;;;;;4.10;3.40;;;23.20;45.60;24.40;100568.00;;;;5028580;28;20171;-52
2022/05/16 02:19:31;;;;;;;4.30;2.83;;;23.20;45.40;24.40;100577.00;;;;5028680;28;20194;-52
2022/05/16 02:24:42;;;;;;;5.03;3.17;;;23.20;45.50;24.40;100556.00;;;;5031052;28;20178;-51
2022/05/16 02:27:09;;;;;;;4.73;3.10;;;23.20;45.40;24.40;100561.00;;;;5029129;28;20170;-52
2022/05/16 02:29:35;;;;;;;3.60;3.00;;;23.20;45.50;24.40;100555.00;;;;5027150;28;20191;-51
2022/05/16 02:32:02;;;;;;;4.73;3.43;;;23.20;45.50;24.40;100556.00;;;;5028112;28;20179;-50
2022/05/16 02:34:28;;;;;;;5.43;3.30;;;23.20;45.60;24.40;100560.00;;;;5028665;28;20174;-51
2022/05/16 02:36:53;;;;;;;6.47;3.33;;;23.20;45.50;24.40;100553.00;;;;5028037;28;20179;-51
2022/05/16 02:39:19;;;;;;;4.90;3.40;;;23.20;45.80;24.40;100550.00;;;;5028166;28;20198;-52
2022/05/16 02:41:45;;;;;;;4.73;3.30;;;23.20;45.80;24.40;100544.00;;;;5028322;28;20203;-50
2022/05/16 02:44:12;;;;;;;4.90;3.07;;;23.20;45.80;24.40;100552.00;;;;5027052;28;20176;-51
2022/05/16 02:46:38;;;;;;;3.73;3.10;;;23.20;46.00;24.40;100539.00;;;;5028146;28;20250;-52
2022/05/16 02:49:03;;;;;;;4.63;3.40;;;23.20;45.80;24.40;100545.00;;;;5026528;28;20211;-52
2022/05/16 02:51:30;;;;;;;5.77;3.30;;;23.20;45.90;24.40;100542.00;;;;5036899;28;20174;-51
2022/05/16 02:53:56;;;;;;;4.97;3.40;;;23.20;45.90;24.40;100547.00;;;;5046711;28;20330;-52
2022/05/16 02:56:22;;;;;;;6.23;3.43;;;23.20;45.90;24.40;100559.00;;;;5047553;28;20665;-52
2022/05/16 02:58:47;;;;;;;3.97;3.10;;;23.20;46.20;24.40;100553.00;;;;5047479;28;20182;-51
2022/05/16 03:01:13;;;;;;;3.87;3.20;;;23.10;46.10;24.30;100555.00;;;;5047642;28;20174;-52
2022/05/16 03:03:39;;;;;;;5.17;3.50;;;23.10;46.00;24.30;100549.00;;;;5047565;28;20220;-52
2022/05/16 03:06:05;;;;;;;6.07;3.27;;;23.10;46.10;24.30;100542.00;;;;5047381;28;20202;-51
2022/05/16 03:08:31;;;;;;;4.63;3.07;;;23.10;46.40;24.30;100545.00;;;;5045669;28;20285;-52
2022/05/16 03:10:57;;;;;;;5.70;3.23;;;23.10;46.30;24.30;100538.00;;;;5045962;28;20594;-53
2022/05/16 03:13:23;;;;;;;10.47;3.40;;;23.10;46.30;24.30;100546.00;;;;5047001;28;20733;-50
2022/05/16 03:15:50;;;;;;;4.23;3.23;;;23.10;46.40;24.20;100551.00;;;;5047068;28;20181;-51
2022/05/16 03:18:15;;;;;;;8.97;3.40;;;23.10;46.60;24.30;100555.00;;;;5046922;28;20193;-52
2022/05/16 03:20:41;;;;;;;6.57;3.10;;;23.10;46.70;24.30;100549.00;;;;5047172;28;20182;-52
2022/05/16 03:23:07;;;;;;;10.80;3.57;;;23.10;46.30;24.30;100540.00;;;;5046017;28;20198;-52
2022/05/16 03:25:32;;;;;;;4.47;3.13;;;23.10;46.60;24.30;100539.00;;;;5047296;28;20653;-50
2022/05/16 03:27:58;;;;;;;5.00;3.40;;;23.10;46.60;24.20;100544.00;;;;5045969;28;20260;-51
2022/05/16 03:30:24;;;;;;;4.37;3.13;;;23.10;46.60;24.20;100532.00;;;;5046352;28;20197;-51
2022/05/16 03:32:50;;;;;;;6.60;3.60;;;23.00;46.50;24.20;100542.00;;;;5046644;28;20307;-51
2022/05/16 03:35:16;;;;;;;3.93;3.33;;;23.00;46.50;24.20;100540.00;;;;5046895;28;20228;-51
2022/05/16 03:37:41;;;;;;;5.03;3.23;;;23.00;46.40;24.20;100536.00;;;;5051963;28;20200;-53
2022/05/16 03:42:52;;;;;;;5.93;3.60;;;23.00;46.40;24.20;100535.00;;;;5013288;28;20246;-51
2022/05/16 03:45:18;;;;;;;5.03;3.73;;;23.00;46.00;24.20;100535.00;;;;5006354;28;20191;-52
2022/05/16 03:47:44;;;;;;;5.73;3.50;;;23.00;46.40;24.10;100526.00;;;;5006423;28;20527;-52
2022/05/16 03:50:11;;;;;;;4.17;3.33;;;23.00;46.40;24.10;100531.00;;;;5006527;28;20291;-53
2022/05/16 03:52:38;;;;;;;4.20;3.10;;;23.00;46.70;23.90;100529.00;;;;5057854;28;20253;-52
2022/05/16 03:55:05;;;;;;;4.33;3.40;;;22.90;46.30;24.10;100536.00;;;;5066032;28;20380;-52
2022/05/16 03:57:32;;;;;;;4.80;3.23;;;23.00;46.70;24.10;100550.00;;;;5058816;28;20761;-52
2022/05/16 03:59:57;;;;;;;5.10;3.40;;;22.90;46.60;24.10;100542.00;;;;5047161;28;20177;-51
2022/05/16 04:02:23;;;;;;;4.87;3.33;;;22.90;46.70;24.10;100547.00;;;;5046629;28;20194;-50
2022/05/16 04:04:49;;;;;;;3.43;3.13;;;22.90;46.70;24.00;100534.00;;;;5046357;28;20200;-52
2022/05/16 04:07:14;;;;;;;4.23;3.00;;;22.90;46.70;24.00;100528.00;;;;5045843;28;20795;-54
2022/05/16 04:09:40;;;;;;;4.73;3.07;;;22.90;46.70;24.00;100538.00;;;;5044324;28;20186;-52
2022/05/16 04:12:06;;;;;;;5.27;3.10;;;22.90;46.70;24.00;100548.00;;;;5046284;28;20249;-52
2022/05/16 04:14:32;;;;;;;3.63;3.00;;;22.90;46.80;24.00;100517.00;;;;5045535;28;20257;-52
2022/05/16 04:16:58;;;;;;;6.23;3.37;;;22.90;46.70;24.00;100520.00;;;;5046197;28;20250;-52
2022/05/16 04:19:25;;;;;;;3.93;2.90;;;22.80;46.70;24.00;100519.00;;;;5045787;28;20220;-52
2022/05/16 04:21:50;;;;;;;5.60;3.10;;;22.90;46.80;24.00;100519.00;;;;5045400;28;20216;-51
2022/05/16 04:24:16;;;;;;;4.60;3.30;;;22.80;46.70;24.00;100525.00;;;;5045504;28;20575;-51
2022/05/16 04:26:42;;;;;;;5.17;3.30;;;22.90;47.00;24.00;100520.00;;;;5046068;28;20171;-52
2022/05/16 04:29:08;;;;;;;4.70;3.20;;;22.80;46.90;24.00;100520.00;;;;5045393;28;20846;-52
2022/05/16 04:31:33;;;;;;;4.27;2.73;;;22.80;47.10;23.90;100516.00;;;;5045341;28;20166;-52
2022/05/16 04:33:59;;;;;;;3.43;2.97;;;22.80;46.90;23.90;100507.00;;;;5043574;28;20568;-53
2022/05/16 04:36:25;;;;;;;5.17;3.40;;;22.80;46.90;23.90;100516.00;;;;5045745;28;20181;-53
2022/05/16 04:38:50;;;;;;;4.80;3.23;;;22.70;46.80;23.90;100515.00;;;;5045614;28;20182;-52
2022/05/16 04:44:14;;;;;;;5.00;3.20;;;22.70;46.90;23.80;100503.00;;;;5043684;28;20287;-50
2022/05/16 04:46:40;;;;;;;4.50;3.40;;;22.70;46.70;23.80;100505.00;;;;5045556;28;20940;-53
2022/05/16 04:49:05;;;;;;;5.43;3.50;;;22.70;46.40;23.80;100514.00;;;;5045315;28;20221;-52
2022/05/16 04:51:31;;;;;;;5.67;3.00;;;22.70;46.50;23.80;100513.00;;;;5035317;28;20225;-52
2022/05/16 04:53:57;;;;;;;4.27;3.47;;;22.70;46.50;23.70;100507.00;;;;5025392;28;20174;-52
2022/05/16 04:56:23;;;;;;;4.30;3.00;;;22.60;46.40;23.70;100514.00;;;;5025406;28;20167;-53
2022/05/16 04:58:48;;;;;;;4.83;3.40;;;22.50;46.30;23.70;100518.00;;;;5025224;28;20191;-51
2022/05/16 05:01:14;;;;;;;4.87;3.20;;;22.50;46.40;23.70;100520.00;;;;5025776;28;20707;-53
2022/05/16 05:03:41;;;;;;;4.47;3.10;;;22.60;46.50;23.70;100521.00;;;;5025847;28;20210;-51
2022/05/16 05:06:06;;;;;;;4.90;3.07;;;22.60;46.40;23.70;100526.00;;;;5025263;28;20175;-52
2022/05/16 05:08:32;;;;;;;4.87;3.50;;;22.50;46.20;23.70;100521.00;;;;5025053;28;20202;-52
2022/05/16 05:16:26;;;;;;;4.47;2.93;;;22.50;46.30;23.60;100521.00;;;;5026109;28;20154;-51
2022/05/16 05:18:52;;;;;;;4.63;3.20;;;22.50;46.30;23.60;100523.00;;;;5029218;28;20215;-51
2022/05/16 05:21:18;;;;;;;4.87;3.10;;;22.50;46.30;23.60;100517.00;;;;5029965;28;20182;-52
2022/05/16 05:23:44;;;;;;;4.27;3.00;;;22.50;46.40;23.50;100529.00;;;;5024196;28;20198;-51
2022/05/16 05:26:10;;;;;;;5.60;3.10;;;22.50;46.40;23.50;100525.00;;;;5026757;28;20175;-51
2022/05/16 05:28:37;;;;;;;4.00;3.00;;;22.50;46.40;23.50;100530.00;;;;5026604;28;20194;-52
2022/05/16 05:31:03;;;;;;;5.63;2.97;;;22.50;46.50;23.50;100533.00;;;;5026089;28;20229;-52
2022/05/16 05:33:28;;;;;;;4.33;2.90;;;22.40;46.50;23.50;100536.00;;;;5026138;28;20179;-52
2022/05/16 05:35:54;;;;;;;4.43;2.90;;;22.40;46.60;23.50;100549.00;;;;5026346;28;20179;-52
2022/05/16 05:38:20;;;;;;;4.27;3.07;;;22.40;46.60;23.50;100527.00;;;;5026393;28;20190;-52
2022/05/16 05:40:46;;;;;;;4.30;3.10;;;22.40;46.60;23.50;100531.00;;;;5026282;28;20171;-52
2022/05/16 05:43:12;;;;;;;5.67;3.00;;;22.40;46.50;23.50;100531.00;;;;5026190;28;20217;-52
2022/05/16 05:45:37;;;;;;;4.47;2.90;;;22.40;46.60;23.50;100528.00;;;;5026066;28;20174;-51
2022/05/16 05:48:04;;;;;;;4.00;2.80;;;22.40;46.70;23.50;100528.00;;;;5028769;28;20194;-51
2022/05/16 05:50:30;;;;;;;4.70;3.10;;;22.40;46.70;23.40;100533.00;;;;5046483;28;20163;-52
2022/05/16 05:52:57;;;;;;;3.80;3.03;;;22.40;46.70;23.40;100525.00;;;;5048002;28;20263;-51
2022/05/16 05:55:23;;;;;;;3.47;3.00;;;22.40;46.90;23.40;100539.00;;;;5049599;28;20159;-51
2022/05/16 05:57:48;;;;;;;3.47;2.93;;;22.40;47.10;23.40;100531.00;;;;5049287;28;20201;-53
2022/05/16 06:00:15;;;;;;;3.40;3.00;;;22.40;47.00;23.30;100548.00;;;;5049660;28;20235;-51
2022/05/16 06:02:41;;;;;;;3.73;3.07;;;22.40;47.60;23.40;100551.00;;;;5047753;28;20204;-50
2022/05/16 06:05:12;;;;;;;3.90;3.27;;;22.40;46.90;23.40;100548.00;;;;5048371;28;20608;-51
2022/05/16 06:07:38;;;;;;;3.40;3.00;;;22.40;46.90;23.40;100548.00;;;;5048902;28;20862;-51
2022/05/16 06:10:05;;;;;;;3.67;3.07;;;22.40;46.90;23.40;100553.00;;;;5048763;28;20170;-52
2022/05/16 06:12:31;;;;;;;4.27;3.20;;;22.40;47.00;23.40;100558.00;;;;5048051;28;20185;-52
2022/05/16 06:14:57;;;;;;;3.40;3.10;;;22.40;47.10;23.40;100565.00;;;;5047537;28;20190;-52
2022/05/16 06:17:22;;;;;;;4.07;3.00;;;22.30;47.10;23.40;100569.00;;;;5047631;28;20167;-51
2022/05/16 06:19:48;;;;;;;4.40;3.13;;;22.30;47.00;23.40;100565.00;;;;5047834;28;20193;-53
2022/05/16 06:22:14;;;;;;;5.07;3.33;;;22.40;47.10;23.30;100559.00;;;;5047724;28;20256;-51
2022/05/16 06:27:28;;;;;;;4.33;3.10;;;22.30;47.20;23.30;100575.00;;;;5047685;28;20157;-51
2022/05/16 06:29:58;;;;;;;4.63;3.00;;;22.30;47.30;23.30;100583.00;;;;5047659;28;20724;-51
2022/05/16 06:32:24;;;;;;;4.80;2.90;;;22.30;48.00;23.30;100596.00;;;;5046442;28;20829;-52
2022/05/16 06:34:51;;;;;;;4.50;3.20;;;22.20;47.40;23.30;100604.00;;;;5047387;28;20170;-52
2022/05/16 06:37:18;;;;;;;5.20;2.87;;;22.30;47.70;23.30;100600.00;;;;5047215;28;20730;-51
2022/05/16 06:39:45;;;;;;;4.57;2.90;;;22.30;47.30;23.30;100609.00;;;;5047452;28;20590;-51
2022/05/16 06:42:11;;;;;;;4.47;2.97;;;22.30;47.40;23.30;100608.00;;;;5047293;28;20739;-51
2022/05/16 06:44:37;;;;;;;3.37;2.77;;;22.20;47.60;23.30;100603.00;;;;5047482;28;20170;-52
2022/05/16 06:47:03;;;;;;;5.33;2.97;;;22.30;47.70;23.30;100615.00;;;;5047289;28;20178;-52
2022/05/16 06:49:29;;;;;;;3.60;3.17;;;22.30;48.30;23.30;100613.00;;;;5054663;28;20249;-52
2022/05/16 06:51:54;;;;;;;4.13;3.10;;;22.30;47.70;23.30;100621.00;;;;5040729;28;20727;-51
2022/05/16 06:54:20;;;;;;;4.73;3.20;;;22.20;47.60;23.30;100614.00;;;;5026911;28;20170;-52
2022/05/16 06:56:46;;;;;;;3.93;3.10;;;22.20;47.60;23.30;100611.00;;;;5026869;28;20179;-53
2022/05/16 06:59:11;;;;;;;3.30;2.93;;;22.20;47.60;23.30;100613.00;;;;5027025;28;20663;-52
2022/05/16 07:01:37;;;;;;;3.90;2.90;;;22.20;47.80;23.30;100549.00;;;;5026632;28;20224;-52
2022/05/16 07:04:04;;;;;;;3.43;2.90;;;22.20;47.90;23.30;100618.00;;;;5026791;28;20171;-53
2022/05/16 07:06:30;;;;;;;4.47;3.30;;;22.20;47.90;23.30;100621.00;;;;5026664;28;20190;-52
2022/05/16 07:08:56;;;;;;;3.80;3.00;;;22.20;47.80;23.30;100624.00;;;;5026482;28;20205;-51
2022/05/16 07:11:22;;;;;;;4.43;2.87;;;22.20;48.00;23.30;100626.00;;;;5027475;28;20181;-52
2022/05/16 07:13:48;;;;;;;3.83;3.33;;;22.20;48.10;23.30;100636.00;;;;5026818;28;20237;-52
2022/05/16 07:16:13;;;;;;;5.40;3.27;;;22.20;47.90;23.30;100637.00;;;;5026949;28;20182;-51
2022/05/16 07:18:39;;;;;;;4.57;3.30;;;22.20;48.00;23.30;100639.00;;;;5031271;28;20187;-52
2022/05/16 07:21:05;;;;;;;4.83;3.10;;;22.20;48.30;23.30;100640.00;;;;5049182;28;20193;-53
2022/05/16 07:23:31;;;;;;;4.10;3.20;;;22.20;48.20;23.30;100641.00;;;;5047558;28;20202;-51
2022/05/16 07:28:41;;;;;;;4.33;2.90;;;22.20;48.70;23.30;100647.00;;;;5026813;28;20214;-52
2022/05/16 07:31:07;;;;;;;4.23;3.07;;;22.20;48.40;23.30;100647.00;;;;5027073;28;20175;-51
2022/05/16 07:33:34;;;;;;;4.43;3.10;;;22.20;48.70;23.30;100654.00;;;;5026195;28;20222;-56
2022/05/16 07:36:00;;;;;;;4.67;3.30;;;22.20;48.70;23.30;100667.00;;;;5026727;28;20206;-53
2022/05/16 07:38:26;;;;;;;4.13;3.07;;;22.20;50.00;23.30;100670.00;;;;5033482;28;20255;-51
2022/05/16 07:40:52;;;;;;;4.77;3.30;;;22.20;49.80;23.30;100660.00;;;;5037132;28;20218;-51
2022/05/16 07:43:18;;;;;;;3.77;2.97;;;22.30;50.10;23.30;100666.00;;;;5035033;28;20267;-50
2022/05/16 07:45:44;;;;;;;3.67;3.20;;;22.30;50.40;23.40;100670.00;;;;5027503;28;20762;-51
2022/05/16 07:48:09;;;;;;;3.73;3.10;;;22.20;49.90;23.30;100664.00;;;;5026944;28;20195;-52
2022/05/16 07:50:38;;;;;;;7.73;3.10;;;22.20;50.30;23.40;100663.00;;;;5029984;28;20174;-51
2022/05/16 07:53:11;;;;;;;4.57;3.20;;;22.30;50.40;23.40;100662.00;;;;4921416;28;22744;-52
2022/05/16 07:55:37;;;;;;;3.67;2.87;;;22.20;50.20;23.40;100676.00;;;;5016657;28;20200;-52
2022/05/16 07:58:03;;;;;;;4.50;3.27;;;22.30;50.10;23.40;100679.00;;;;5022591;28;20430;-50
2022/05/16 08:00:28;;;;;;;4.37;3.40;;;22.20;50.10;23.40;100684.00;;;;5029580;28;20919;-52
2022/05/16 08:02:55;;;;;;;4.00;3.30;;;22.20;50.20;23.40;100688.00;;;;5029225;28;20210;-52
2022/05/16 08:05:22;;;;;;;4.37;3.60;;;22.20;50.70;23.40;100701.00;;;;5027960;28;20216;-51
2022/05/16 08:10:33;;;;;;;3.73;3.20;;;22.30;52.80;23.40;100703.00;;;;5028047;28;20249;-52
2022/05/16 08:13:06;;;;;;;3.83;3.30;;;22.30;52.10;23.40;100707.00;;;;5028603;28;20278;-51
2022/05/16 08:15:33;;;;;;;4.30;3.27;;;22.20;51.70;23.40;100717.00;;;;5029132;28;20183;-50
2022/05/16 08:17:59;;;;;;;4.17;3.30;;;22.20;52.00;23.40;100717.00;;;;5027607;28;20199;-50
2022/05/16 08:20:26;;;;;;;3.63;3.20;;;22.20;52.20;23.40;100719.00;;;;5028967;28;20224;-51
2022/05/16 08:22:51;;;;;;;3.93;3.47;;;22.30;52.10;23.40;100717.00;;;;5029371;28;20240;-51
2022/05/16 08:25:17;;;;;;;9.30;3.50;;;22.30;52.50;23.40;100717.00;;;;5028274;28;20175;-51
2022/05/16 08:27:44;;;;;;;10.27;3.70;;;22.20;53.50;23.30;100710.00;;;;5028523;28;20573;-51
2022/05/16 08:30:11;;;;;;;5.00;3.60;;;22.30;53.20;23.40;100706.00;;;;5028668;28;20155;-51
2022/05/16 08:32:37;;;;;;;3.53;3.10;;;22.20;52.80;23.40;100705.00;;;;5027643;28;20228;-50
2022/05/16 08:35:07;;;;;;;5.17;3.20;;;22.20;52.00;23.40;100710.00;;;;5028754;28;20175;-51
2022/05/16 08:40:18;;;;;;;5.23;3.23;;;22.20;52.70;23.30;100700.00;;;;5027239;28;20209;-51
2022/05/16 08:42:47;;;;;;;6.07;3.10;;;22.20;53.20;23.40;100705.00;;;;5027156;28;20203;-51
2022/05/16 08:45:36;;;;;;;5.60;3.40;;;22.20;53.00;23.40;100702.00;;;;5028570;28;20175;-52
2022/05/16 08:48:17;;;;;;;4.53;3.00;;;22.20;53.30;23.30;100698.00;;;;5027045;28;20224;-52
2022/05/16 08:50:52;;;;;;;3.33;2.97;;;22.30;53.90;23.30;100688.00;;;;5032007;28;20168;-52
2022/05/16 08:53:40;;;;;;;3.80;3.20;;;22.20;53.70;23.30;100691.00;;;;4976245;28;20186;-53
2022/05/16 08:56:09;;;;;;;4.47;3.30;;;22.30;53.80;23.30;100684.00;;;;5032994;28;20579;-52
2022/05/16 08:59:04;;;;;;;3.67;3.00;;;22.30;54.10;23.30;100690.00;;;;5031493;28;20201;-52
2022/05/16 09:02:06;;;;;;;6.53;3.10;;;22.30;55.00;23.40;100686.00;;;;5021403;28;20174;-51
2022/05/16 09:04:50;;;;;;;4.30;3.30;;;22.30;57.10;23.40;100693.00;;;;5012435;28;20225;-52
2022/05/16 09:07:34;;;;;;;6.00;3.33;;;22.30;55.40;23.40;100687.00;;;;5010783;28;20842;-51
2022/05/16 09:10:24;;;;;;;5.63;3.47;;;22.30;56.10;23.40;100689.00;;;;4996364;28;20252;-51
2022/05/16 09:13:29;;;;;;;4.20;2.93;;;22.40;56.70;23.40;100684.00;;;;5028470;28;20186;-50
2022/05/16 09:16:23;;;;;;;4.53;2.90;;;22.30;57.80;23.40;100696.00;;;;5039285;28;20170;-51
2022/05/16 09:19:12;;;;;;;3.50;2.90;;;22.30;57.50;23.40;100704.00;;;;5034168;28;20232;-52
2022/05/16 09:22:03;;;;;;;3.83;3.00;;;22.40;57.40;23.40;100696.00;;;;5032829;28;20198;-51
2022/05/16 09:24:35;;;;;;;7.27;3.30;;;22.40;57.30;23.40;100699.00;;;;5031699;28;20167;-51
2022/05/16 09:27:08;;;;;;;6.30;3.17;;;22.40;58.20;23.50;100687.00;;;;5030954;28;20242;-51
2022/05/16 09:29:45;;;;;;;4.30;2.90;;;22.40;58.00;23.40;100699.00;;;;5032161;28;20286;-52
2022/05/16 09:32:33;;;;;;;4.50;3.17;;;22.40;58.30;23.50;100692.00;;;;5030986;28;20163;-51
2022/05/16 09:34:59;;;;;;;4.70;3.20;;;22.30;58.60;23.40;100693.00;;;;5033086;28;20250;-51
2022/05/16 09:37:24;;;;;;;4.97;3.20;;;22.30;58.50;23.50;100707.00;;;;5032750;28;20230;-50
2022/05/16 09:39:51;;;;;;;6.73;3.40;;;22.40;58.70;23.50;100696.00;;;;5033513;28;20697;-50
2022/05/16 09:42:23;;;;;;;3.83;3.30;;;22.30;58.90;23.50;100693.00;;;;5031375;28;20183;-51
2022/05/16 09:45:02;;;;;;;5.73;3.33;;;22.40;59.20;23.50;100692.00;;;;5030822;28;20174;-50
2022/05/16 09:47:36;;;;;;;8.23;3.33;;;22.40;59.10;23.50;100697.00;;;;5032246;28;20213;-51
2022/05/16 09:50:28;;;;;;;3.80;3.40;;;22.40;59.90;23.50;100703.00;;;;5031093;28;20163;-51
2022/05/16 09:53:04;;;;;;;4.93;3.23;;;22.40;60.90;23.50;100697.00;;;;4947285;28;20171;-50
2022/05/16 09:55:43;;;;;;;3.70;3.40;;;22.40;60.40;23.50;100691.00;;;;5052393;28;20185;-51
2022/05/16 09:58:24;;;;;;;4.57;3.27;;;22.40;60.00;23.50;100689.00;;;;5052654;28;20213;-51
2022/05/16 10:01:04;;;;;;;5.10;3.27;;;22.40;59.90;23.50;100691.00;;;;5029473;28;20256;-51
2022/05/16 10:03:42;;;;;;;4.30;3.33;;;22.40;60.60;23.50;100686.00;;;;5031429;28;20206;-51
2022/05/16 10:06:09;;;;;;;4.07;3.03;;;22.40;60.60;23.50;100677.00;;;;5030941;28;20151;-51
2022/05/16 10:08:38;;;;;;;5.30;3.73;;;22.40;60.40;23.50;100687.00;;;;5031413;28;20187;-51
2022/05/16 10:11:18;;;;;;;6.10;3.47;;;22.40;61.10;23.50;100693.00;;;;4981070;28;20577;-51
2022/05/16 10:13:44;;;;;;;6.47;3.40;;;22.40;61.10;23.50;100689.00;;;;4992002;28;20194;-52
2022/05/16 10:16:10;;;;;;;5.70;3.40;;;22.40;60.90;23.50;100678.00;;;;4990319;28;20677;-51
2022/05/16 10:18:49;;;;;;;4.47;3.20;;;22.40;60.60;23.60;100699.00;;;;4974598;28;20200;-51
2022/05/16 10:21:30;;;;;;;3.63;3.27;;;22.50;60.70;23.60;100689.00;;;;4959680;28;20585;-55
2022/05/16 10:23:56;;;;;;;4.07;3.07;;;22.50;60.40;23.60;100692.00;;;;4976331;28;20211;-50
2022/05/16 10:26:24;;;;;;;4.10;3.50;;;22.50;60.50;23.60;100685.00;;;;4990691;28;20185;-51
2022/05/16 10:28:54;;;;;;;3.90;3.30;;;22.50;60.20;23.60;100687.00;;;;4974591;28;20533;-52
2022/05/16 10:34:15;;;;;;;5.63;3.60;;;22.60;59.80;23.60;100686.00;;;;4990994;28;20167;-51
2022/05/16 10:36:42;;;;;;;3.63;3.17;;;22.70;61.00;23.70;100691.00;;;;4997638;28;20241;-53
2022/05/16 10:39:16;;;;;;;6.53;3.57;;;22.70;60.80;23.70;100691.00;;;;4979736;28;20192;-51
2022/05/16 10:42:00;;;;;;;4.43;3.30;;;22.70;60.60;23.70;100698.00;;;;4978515;28;20169;-50
2022/05/16 10:44:48;;;;;;;4.70;3.30;;;22.70;60.10;23.70;100691.00;;;;4990197;28;20179;-51
2022/05/16 10:47:29;;;;;;;5.30;3.03;;;22.70;59.90;23.70;100696.00;;;;4989725;28;20187;-51
2022/05/16 10:50:47;;;;;;;6.33;3.20;;;22.80;60.50;23.80;100694.00;;;;4989803;28;20161;-50
2022/05/16 10:53:17;;;;;;;4.83;3.13;;;22.90;59.80;23.80;100692.00;;;;4890584;28;20291;-50
2022/05/16 10:55:58;;;;;;;5.97;3.33;;;23.00;58.30;23.80;100695.00;;;;4960667;28;20236;-50
2022/05/16 10:59:02;;;;;;;4.13;3.27;;;23.00;58.50;23.90;100699.00;;;;4991194;28;20208;-51
2022/05/16 11:01:40;;;;;;;3.63;3.20;;;23.00;58.00;23.90;100690.00;;;;4990901;28;20183;-50
2022/05/16 11:04:41;;;;;;;4.23;2.90;;;23.00;57.70;23.90;100685.00;;;;4990695;28;20172;-55
2022/05/16 11:07:27;;;;;;;6.57;3.00;;;23.10;58.10;23.90;100687.00;;;;4987097;28;20195;-51
2022/05/16 11:10:07;;;;;;;4.00;3.10;;;23.00;58.00;24.00;100688.00;;;;4991057;28;20223;-51
2022/05/16 11:13:11;;;;;;;3.60;2.80;;;23.10;58.00;24.00;100669.00;;;;4997660;28;20232;-51
2022/05/16 11:15:49;;;;;;;4.03;3.13;;;23.20;57.20;24.00;100684.00;;;;5000375;28;20188;-51
2022/05/16 11:18:33;;;;;;;5.10;2.93;;;23.30;57.30;24.10;100676.00;;;;4996344;28;20212;-49
2022/05/16 11:21:49;;;;;;;4.43;2.83;;;23.30;57.30;24.10;100668.00;;;;4973863;28;20640;-50
2022/05/16 11:25:00;;;;;;;2.87;2.57;;;23.40;56.10;24.10;100665.00;;;;4976416;28;20613;-50
2022/05/16 11:27:34;;;;;;;4.27;2.90;;;23.40;56.10;24.20;100660.00;;;;4979040;28;20181;-51
2022/05/16 11:30:22;;;;;;;3.80;2.90;;;23.50;56.00;24.20;100662.00;;;;4991197;28;20649;-50
2022/05/16 11:33:15;;;;;;;5.27;2.87;;;23.50;55.80;24.20;100672.00;;;;4990087;28;20161;-51